CST,Max TemperatureF,Mean TemperatureF,Min TemperatureF,Max Dew PointF,MeanDew PointF,Min DewpointF,Max Humidity, Mean Humidity, Min Humidity, Max Sea Level PressureIn, Mean Sea Level PressureIn, Min Sea Level PressureIn, Max VisibilityMiles, Mean VisibilityMiles, Min VisibilityMiles, Max Wind SpeedMPH, Mean Wind SpeedMPH, Max Gust SpeedMPH,PrecipitationIn, CloudCover, Events, WindDirDegrees
2013-1-1,39,35,30,37,33,24,100,88,76,30.25,30.12,30.04,10,6,1,13,7,16,T,7,,13
2013-1-2,33,29,25,23,21,19,81,70,59,30.33,30.28,30.24,10,10,9,9,2,10,0.00,0,,49
2013-1-3,43,33,23,27,24,19,88,69,49,30.45,30.38,30.29,10,10,7,10,3,15,0.00,0,,334
2013-1-4,45,35,25,29,26,22,92,71,49,30.50,30.44,30.40,10,10,8,12,3,14,0.00,0,,267
2013-1-5,45,36,27,36,31,24,92,77,62,30.40,30.32,30.25,10,10,7,14,5,17,T,4,,203
2013-1-6,48,38,27,34,30,23,96,71,45,30.41,30.28,30.22,10,6,0,15,5,21,0.00,1,Fog,261
2013-1-7,46,36,25,29,26,23,92,71,49,30.46,30.35,30.23,10,8,5,14,3,18,0.00,0,,77
2013-1-8,55,41,27,41,34,25,92,73,54,30.27,30.21,30.16,10,9,4,12,3,15,0.00,2,,133
2013-1-9,55,51,46,48,45,39,93,80,66,30.37,30.31,30.23,10,8,2,24,9,29,0.41,8,Rain,49
2013-1-10,66,58,49,63,56,46,100,91,81,30.31,30.05,29.87,10,6,1,32,13,43,0.63,7,Rain,118
2013-1-11,65,58,51,55,50,47,90,73,56,30.01,29.94,29.90,10,10,10,21,11,25,0.00,0,,197
2013-1-12,70,58,46,66,60,44,100,92,84,29.94,29.84,29.68,10,5,0,28,11,44,1.60,8,Fog-Rain-Thunderstorm,202
2013-1-13,46,37,28,45,35,21,100,88,75,30.33,30.02,29.78,10,8,4,18,9,26,1.07,7,Rain-Thunderstorm,349
2013-1-14,32,28,24,20,18,16,75,67,58,30.46,30.37,30.34,10,10,10,17,10,22,0.00,2,,22
2013-1-15,31,28,24,27,23,18,85,74,63,30.35,30.21,30.13,10,9,2,20,9,24,0.06,6,Rain-Snow,17
2013-1-16,39,33,26,24,20,14,81,58,34,30.21,30.16,30.12,10,10,10,12,3,16,0.00,3,,332
2013-1-17,50,40,29,34,26,18,85,69,52,30.51,30.31,30.16,10,10,10,17,7,26,0.00,2,,334
2013-1-18,48,37,25,35,29,22,85,71,56,30.57,30.47,30.32,10,10,10,14,6,16,0.00,0,,163
2013-1-19,57,47,37,39,35,30,76,64,51,30.31,30.22,30.14,10,10,10,25,13,30,0.00,0,,214
2013-1-20,51,43,34,35,31,22,82,62,42,30.31,30.23,30.18,10,10,10,16,8,21,0.00,0,,38
2013-1-21,40,35,29,21,17,14,63,50,37,30.40,30.33,30.23,10,10,10,15,6,18,0.00,1,,1
2013-1-22,32,28,24,19,15,10,75,59,43,30.47,30.40,30.36,10,10,10,15,7,17,0.00,2,,65
2013-1-23,50,37,24,36,27,19,89,68,46,30.37,30.27,30.18,10,10,9,13,3,15,0.00,0,,171
2013-1-24,43,37,30,35,21,16,89,69,49,30.51,30.36,30.23,10,10,10,25,14,32,T,7,,51
2013-1-25,47,40,32,34,30,23,89,73,56,30.27,30.19,30.10,10,10,9,12,4,16,0.04,4,Rain,337
2013-1-26,50,43,35,34,31,25,85,66,46,30.36,30.30,30.26,10,10,10,12,7,14,0.00,3,,46
2013-1-27,60,51,41,53,43,32,93,80,66,30.27,30.17,30.08,10,10,10,12,7,16,T,6,Rain,132
2013-1-28,70,63,56,63,57,53,100,90,80,30.10,30.05,30.00,10,10,5,24,15,32,0.10,7,Rain,192
2013-1-29,74,65,55,,,,,,,29.99,29.71,29.47,10,8,0,33,17,40,1.34,8,Rain-Thunderstorm,188
2013-1-30,55,45,34,41,29,21,77,66,54,30.04,29.66,29.51,10,10,10,32,16,43,0.12,7,Rain,254
2013-1-31,54,41,28,35,25,10,78,58,38,30.38,30.15,30.04,10,10,10,22,11,31,0.00,2,,278